Time;durP1;ratioP1;P1;durP2;ratioP2;P2;SDS_P1;SDS_P2;PMS_P1;PMS_P2;Temp;Humidity;BMP_temperature;BMP_pressure;BME280_temperature;BME280_humidity;BME280_pressure;Samples;Min_cycle;Max_cycle;Signal;HPM_P1;HPM_P2
2023/07/28 00:02:12;;;;;;;7.17;3.87;;;18.70;99.90;;;;;;5074131;28;20771;-85
2023/07/28 00:04:38;;;;;;;5.70;4.20;;;18.70;99.90;;;;;;5075087;28;20270;-85
2023/07/28 00:07:04;;;;;;;4.37;3.73;;;18.70;99.90;;;;;;5074811;28;20178;-86
2023/07/28 00:09:30;;;;;;;5.40;3.90;;;18.70;99.90;;;;;;5073873;28;20182;-85
2023/07/28 00:11:57;;;;;;;6.47;3.70;;;18.70;99.90;;;;;;5088568;28;20210;-87
2023/07/28 00:14:24;;;;;;;6.13;3.80;;;18.80;99.90;;;;;;5075999;28;20186;-87
2023/07/28 00:16:54;;;;;;;5.13;4.10;;;18.80;99.90;;;;;;5074436;28;20183;-87
2023/07/28 00:19:23;;;;;;;5.17;3.53;;;18.80;99.90;;;;;;5074761;28;20174;-86
2023/07/28 00:21:50;;;;;;;4.40;3.80;;;18.80;99.90;;;;;;5075020;28;20666;-86
2023/07/28 00:24:16;;;;;;;4.70;3.50;;;18.80;99.90;;;;;;5074399;28;20206;-86
2023/07/28 00:26:42;;;;;;;5.83;4.53;;;18.80;99.90;;;;;;5076283;28;20187;-87
2023/07/28 00:29:08;;;;;;;5.17;4.13;;;18.80;99.90;;;;;;5076565;28;20191;-86
2023/07/28 00:31:34;;;;;;;6.47;4.60;;;18.90;99.90;;;;;;5075794;28;20187;-85
2023/07/28 00:34:02;;;;;;;7.10;4.43;;;18.90;99.90;;;;;;5080471;28;20186;-86
2023/07/28 00:36:28;;;;;;;4.87;4.30;;;19.00;99.90;;;;;;5094165;28;20170;-84
2023/07/28 00:38:54;;;;;;;8.00;4.87;;;18.90;99.90;;;;;;5091061;28;20233;-82
2023/07/28 00:41:20;;;;;;;6.03;4.30;;;19.00;99.90;;;;;;5079789;28;20421;-85
2023/07/28 00:43:45;;;;;;;6.83;4.47;;;18.90;99.90;;;;;;5074648;28;20278;-84
2023/07/28 00:46:11;;;;;;;8.43;4.83;;;19.00;99.90;;;;;;5073798;28;20192;-86
2023/07/28 00:48:40;;;;;;;5.07;4.50;;;19.00;99.90;;;;;;5075166;28;20256;-85
2023/07/28 00:51:07;;;;;;;6.87;4.77;;;19.00;99.90;;;;;;5075025;28;20659;-84
2023/07/28 00:53:33;;;;;;;5.50;4.43;;;18.90;99.90;;;;;;5074790;28;20186;-86
2023/07/28 00:55:59;;;;;;;7.37;4.77;;;18.90;99.90;;;;;;5080756;28;20532;-85
2023/07/28 00:58:24;;;;;;;7.07;5.00;;;18.90;99.90;;;;;;5087060;28;20179;-85
2023/07/28 01:00:50;;;;;;;6.17;5.27;;;18.90;99.90;;;;;;5079098;28;20229;-83
2023/07/28 01:03:18;;;;;;;8.77;5.50;;;18.90;99.90;;;;;;5085653;28;20698;-84
2023/07/28 01:06:09;;;;;;;6.17;5.00;;;19.00;99.90;;;;;;5086202;28;20664;-86
2023/07/28 01:08:57;;;;;;;7.17;5.37;;;19.00;99.90;;;;;;5096235;28;20257;-86
2023/07/28 01:11:24;;;;;;;8.67;6.10;;;18.90;99.90;;;;;;5075020;28;20221;-86
2023/07/28 01:13:50;;;;;;;6.87;5.37;;;18.90;99.90;;;;;;5073654;28;20186;-86
2023/07/28 01:16:16;;;;;;;9.10;6.00;;;18.90;99.90;;;;;;5074585;28;20270;-86
2023/07/28 01:18:41;;;;;;;6.60;5.60;;;18.90;99.90;;;;;;5073948;28;20167;-87
2023/07/28 01:21:17;;;;;;;9.03;5.63;;;18.90;99.90;;;;;;5074838;28;20237;-86
2023/07/28 01:24:04;;;;;;;9.67;6.43;;;18.90;99.90;;;;;;5087100;28;20223;-85
2023/07/28 01:26:32;;;;;;;8.33;6.13;;;18.90;99.90;;;;;;5098888;28;20235;-86
2023/07/28 01:28:59;;;;;;;8.27;6.60;;;18.90;99.90;;;;;;5104792;28;20190;-86
2023/07/28 01:31:25;;;;;;;11.37;6.67;;;18.90;99.90;;;;;;5100797;28;20191;-85
2023/07/28 01:34:32;;;;;;;10.80;7.10;;;18.90;99.90;;;;;;5091828;28;20177;-85
2023/07/28 01:36:58;;;;;;;8.00;7.00;;;18.90;99.90;;;;;;5074699;28;20655;-85
2023/07/28 01:39:23;;;;;;;11.37;7.37;;;19.00;99.90;;;;;;5073056;28;20202;-86
2023/07/28 01:41:50;;;;;;;9.13;6.90;;;18.90;99.90;;;;;;5073336;28;20253;-85
2023/07/28 01:44:15;;;;;;;9.50;7.33;;;18.90;99.90;;;;;;5073909;28;20183;-85
2023/07/28 01:46:41;;;;;;;11.13;7.77;;;18.90;99.90;;;;;;5072640;28;20168;-84
2023/07/28 01:49:07;;;;;;;9.30;7.70;;;18.90;99.90;;;;;;5072798;28;20171;-85
2023/07/28 01:51:32;;;;;;;11.23;8.10;;;19.00;99.90;;;;;;5072359;28;20171;-85
2023/07/28 01:53:58;;;;;;;10.47;8.23;;;19.00;99.90;;;;;;5073252;28;20168;-87
2023/07/28 01:56:23;;;;;;;11.37;8.03;;;18.90;99.90;;;;;;5075642;28;20187;-85
2023/07/28 01:58:49;;;;;;;10.30;8.10;;;19.00;99.90;;;;;;5076984;28;20204;-86
2023/07/28 02:01:15;;;;;;;11.23;7.30;;;19.00;99.90;;;;;;5076693;28;20256;-85
2023/07/28 02:03:40;;;;;;;10.43;7.67;;;19.00;99.90;;;;;;5077749;28;20171;-85
2023/07/28 02:06:06;;;;;;;11.63;7.70;;;18.90;99.90;;;;;;5077516;28;20175;-85
2023/07/28 02:08:31;;;;;;;11.57;7.90;;;18.90;99.90;;;;;;5094995;28;20651;-85
2023/07/28 02:10:57;;;;;;;10.03;8.73;;;18.90;99.90;;;;;;5077587;28;20653;-86
2023/07/28 02:13:23;;;;;;;12.80;8.90;;;18.90;99.90;;;;;;5077054;28;20195;-84
2023/07/28 02:15:48;;;;;;;12.40;9.30;;;18.90;99.90;;;;;;5077342;28;20660;-86
2023/07/28 02:18:14;;;;;;;11.13;8.77;;;18.90;99.90;;;;;;5076769;28;20229;-83
2023/07/28 02:20:39;;;;;;;10.10;9.00;;;18.90;99.90;;;;;;5077202;28;20328;-86
2023/07/28 02:23:05;;;;;;;12.57;9.57;;;18.80;99.90;;;;;;5077009;28;20183;-85
2023/07/28 02:25:31;;;;;;;13.27;9.93;;;18.80;99.90;;;;;;5076970;28;20172;-85
2023/07/28 02:27:57;;;;;;;12.73;9.50;;;18.90;99.90;;;;;;5076361;28;20178;-85
2023/07/28 02:30:23;;;;;;;14.37;10.00;;;18.80;99.90;;;;;;5076314;28;20249;-86
2023/07/28 02:32:48;;;;;;;12.07;8.73;;;18.90;99.90;;;;;;5077443;28;20180;-85
2023/07/28 02:35:14;;;;;;;12.90;9.90;;;18.90;99.90;;;;;;5104396;28;20186;-85
2023/07/28 02:37:41;;;;;;;10.50;9.40;;;18.90;99.90;;;;;;5097113;28;20174;-86
2023/07/28 02:40:07;;;;;;;11.60;8.63;;;18.90;99.90;;;;;;5097066;28;20174;-86
2023/07/28 02:42:35;;;;;;;10.53;8.50;;;18.80;99.90;;;;;;5115235;28;20170;-85
2023/07/28 02:45:00;;;;;;;11.83;8.07;;;18.80;99.90;;;;;;5096509;28;20632;-85
2023/07/28 02:47:26;;;;;;;10.83;8.37;;;18.80;99.90;;;;;;5097366;28;20268;-84
2023/07/28 02:49:52;;;;;;;13.20;8.90;;;18.80;99.90;;;;;;5115486;28;20177;-85
2023/07/28 02:52:17;;;;;;;11.50;9.23;;;18.80;99.90;;;;;;5096468;28;20174;-87
2023/07/28 02:54:43;;;;;;;11.80;8.20;;;18.90;99.90;;;;;;5096431;28;20169;-84
2023/07/28 02:57:08;;;;;;;11.73;8.63;;;19.00;99.90;;;;;;5096538;28;20173;-88
2023/07/28 02:59:34;;;;;;;11.47;8.43;;;18.90;99.90;;;;;;5096990;28;20175;-85
2023/07/28 03:02:00;;;;;;;12.10;8.10;;;18.90;99.90;;;;;;5088881;28;20217;-86
2023/07/28 03:04:25;;;;;;;10.67;8.03;;;18.80;99.90;;;;;;5076040;28;20184;-86
2023/07/28 03:06:51;;;;;;;10.37;8.23;;;18.90;99.90;;;;;;5076363;28;20173;-87
2023/07/28 03:09:17;;;;;;;11.80;7.30;;;18.80;99.90;;;;;;5076043;28;20177;-86
2023/07/28 03:11:43;;;;;;;8.23;6.57;;;18.90;99.90;;;;;;5076121;28;20230;-86
2023/07/28 03:14:09;;;;;;;9.47;6.87;;;18.80;99.90;;;;;;5075809;28;20178;-86
2023/07/28 03:16:34;;;;;;;8.53;6.30;;;18.80;99.90;;;;;;5076664;28;20647;-87
2023/07/28 03:19:00;;;;;;;10.00;6.80;;;18.70;99.90;;;;;;5076122;28;20703;-87
2023/07/28 03:21:29;;;;;;;7.43;6.07;;;18.70;99.90;;;;;;5075518;28;20576;-86
2023/07/28 03:23:54;;;;;;;8.10;6.50;;;18.70;99.90;;;;;;5075434;28;20268;-86
2023/07/28 03:26:20;;;;;;;9.13;6.80;;;18.70;99.90;;;;;;5076291;28;20544;-86
2023/07/28 03:28:46;;;;;;;9.53;6.90;;;18.70;99.90;;;;;;5075262;28;20191;-86
2023/07/28 03:31:11;;;;;;;8.00;6.03;;;18.70;99.90;;;;;;5075974;28;20648;-87
2023/07/28 03:33:37;;;;;;;11.60;6.60;;;18.70;99.90;;;;;;5075846;28;20248;-87
2023/07/28 03:36:03;;;;;;;10.83;6.33;;;18.80;99.90;;;;;;5087691;28;20186;-85
2023/07/28 03:38:28;;;;;;;9.40;6.13;;;18.80;99.90;;;;;;5098688;28;20163;-86
2023/07/28 03:40:54;;;;;;;7.63;5.90;;;18.90;99.90;;;;;;5121418;28;20217;-86
2023/07/28 03:43:20;;;;;;;9.03;5.80;;;18.90;99.90;;;;;;5119587;28;20166;-86
2023/07/28 03:45:49;;;;;;;9.03;5.97;;;18.90;99.90;;;;;;5107333;28;20199;-86
2023/07/28 03:48:18;;;;;;;6.27;5.30;;;18.80;99.90;;;;;;5099410;28;20248;-85
2023/07/28 03:50:43;;;;;;;6.10;5.50;;;18.80;99.90;;;;;;5096599;28;20682;-85
2023/07/28 03:53:11;;;;;;;6.53;5.47;;;18.90;99.90;;;;;;5095291;28;20180;-84
2023/07/28 03:55:36;;;;;;;7.97;5.80;;;18.90;99.90;;;;;;5094829;28;20171;-85
2023/07/28 03:58:02;;;;;;;6.60;5.50;;;18.90;99.90;;;;;;5095968;28;20513;-85
2023/07/28 04:00:29;;;;;;;7.43;5.87;;;18.80;99.90;;;;;;5098237;28;20201;-84
2023/07/28 04:02:55;;;;;;;8.13;5.87;;;18.90;99.90;;;;;;5097657;28;20170;-85
2023/07/28 04:05:20;;;;;;;6.83;6.13;;;19.00;99.90;;;;;;5094196;28;20546;-85
2023/07/28 04:07:46;;;;;;;10.90;6.27;;;19.00;99.90;;;;;;5094819;28;20175;-86
2023/07/28 04:10:12;;;;;;;7.60;6.57;;;19.10;99.90;;;;;;5096361;28;20170;-85
2023/07/28 04:12:37;;;;;;;7.20;6.37;;;19.10;99.90;;;;;;5095983;28;20245;-86
2023/07/28 04:15:03;;;;;;;7.20;6.17;;;19.00;99.90;;;;;;5095778;28;20176;-85
2023/07/28 04:17:29;;;;;;;8.30;5.87;;;18.90;99.90;;;;;;5095295;28;20167;-85
2023/07/28 04:19:54;;;;;;;8.53;5.87;;;18.90;99.90;;;;;;5095225;28;20175;-85
2023/07/28 04:22:21;;;;;;;8.07;5.77;;;18.90;99.90;;;;;;5098028;28;20211;-84
2023/07/28 04:24:50;;;;;;;6.87;5.60;;;18.90;99.90;;;;;;5105159;28;20189;-83
2023/07/28 04:27:16;;;;;;;7.97;5.33;;;19.10;99.90;;;;;;5103284;28;20599;-85
2023/07/28 04:29:41;;;;;;;5.57;4.90;;;18.90;99.90;;;;;;5094908;28;20191;-86
2023/07/28 04:32:10;;;;;;;6.63;5.33;;;18.90;99.90;;;;;;5114272;28;20179;-86
2023/07/28 04:34:36;;;;;;;7.70;5.33;;;18.90;99.90;;;;;;5095685;28;20215;-85
2023/07/28 04:37:02;;;;;;;6.97;5.10;;;18.80;99.90;;;;;;5095519;28;20180;-86
2023/07/28 04:39:27;;;;;;;7.10;4.87;;;18.80;99.90;;;;;;5113024;28;20618;-86
2023/07/28 04:41:53;;;;;;;8.07;4.73;;;18.90;99.90;;;;;;5095456;28;20214;-87
2023/07/28 04:44:20;;;;;;;6.23;4.40;;;19.00;99.90;;;;;;5095787;28;20628;-86
2023/07/28 04:46:48;;;;;;;7.63;4.80;;;19.00;99.90;;;;;;5094671;28;20178;-87
2023/07/28 04:49:14;;;;;;;7.17;4.33;;;19.00;99.90;;;;;;5112955;28;20169;-86
2023/07/28 04:51:39;;;;;;;6.83;4.50;;;19.00;99.90;;;;;;5094766;28;20549;-85
2023/07/28 04:54:05;;;;;;;5.40;4.13;;;19.00;99.90;;;;;;5095195;28;20176;-87
2023/07/28 04:56:31;;;;;;;5.33;3.93;;;19.00;99.90;;;;;;5095051;28;20215;-87
2023/07/28 04:58:58;;;;;;;5.77;3.77;;;19.00;99.90;;;;;;5097284;28;20176;-86
2023/07/28 05:01:24;;;;;;;4.90;3.60;;;19.00;99.90;;;;;;5094585;28;20778;-86
2023/07/28 05:03:50;;;;;;;4.90;3.90;;;19.10;99.90;;;;;;5094916;28;20265;-86
2023/07/28 05:06:16;;;;;;;7.10;3.70;;;19.10;99.90;;;;;;5094642;28;20176;-86
2023/07/28 05:08:41;;;;;;;6.00;3.30;;;19.00;99.90;;;;;;5093613;28;20169;-85
2023/07/28 05:11:07;;;;;;;5.33;3.13;;;19.10;99.90;;;;;;5095166;28;20168;-85
2023/07/28 05:13:33;;;;;;;4.70;3.10;;;19.10;99.90;;;;;;5112629;28;20204;-85
2023/07/28 05:15:59;;;;;;;3.83;2.90;;;19.00;99.90;;;;;;5094066;28;20179;-85
2023/07/28 05:18:25;;;;;;;4.17;2.90;;;19.00;99.90;;;;;;5094345;28;20185;-85
2023/07/28 05:20:51;;;;;;;5.07;2.90;;;19.10;99.90;;;;;;5082846;28;20204;-84
2023/07/28 05:23:16;;;;;;;5.03;3.07;;;19.10;99.90;;;;;;5074419;28;20168;-85
2023/07/28 05:25:42;;;;;;;4.90;2.73;;;19.10;99.90;;;;;;5093947;28;20223;-86
2023/07/28 05:28:08;;;;;;;5.10;2.77;;;19.20;99.90;;;;;;5075014;28;20258;-86
2023/07/28 05:30:33;;;;;;;3.70;2.87;;;19.10;99.90;;;;;;5075471;28;20630;-89
2023/07/28 05:32:59;;;;;;;4.83;2.53;;;19.20;99.90;;;;;;5078566;28;20184;-87
2023/07/28 05:35:24;;;;;;;3.70;2.90;;;19.20;99.90;;;;;;5081420;28;20170;-87
2023/07/28 05:37:50;;;;;;;5.30;2.70;;;19.10;99.90;;;;;;5097889;28;20589;-88
2023/07/28 05:40:16;;;;;;;3.97;2.80;;;19.10;99.90;;;;;;5094096;28;20170;-86
2023/07/28 05:42:41;;;;;;;4.67;2.50;;;19.10;99.90;;;;;;5093628;28;20245;-87
2023/07/28 05:45:08;;;;;;;3.13;2.40;;;19.10;99.90;;;;;;5095053;28;20289;-85
2023/07/28 05:47:34;;;;;;;2.97;2.30;;;19.20;99.90;;;;;;5108164;28;20184;-86
2023/07/28 05:50:00;;;;;;;5.80;2.30;;;19.20;99.90;;;;;;5096693;28;20533;-87
2023/07/28 05:52:25;;;;;;;4.53;1.97;;;19.20;99.90;;;;;;5084485;28;20176;-87
2023/07/28 05:54:52;;;;;;;2.30;1.60;;;19.20;99.90;;;;;;5093644;28;20159;-86
2023/07/28 05:57:18;;;;;;;2.20;1.27;;;19.20;99.90;;;;;;5105069;28;20178;-88
2023/07/28 05:59:43;;;;;;;1.90;1.27;;;19.10;99.90;;;;;;5102385;28;20171;-87
2023/07/28 06:02:09;;;;;;;2.10;1.33;;;19.20;99.90;;;;;;5091303;28;20217;-87
2023/07/28 06:04:56;;;;;;;1.57;1.07;;;19.20;99.90;;;;;;5099840;28;20307;-87
2023/07/28 06:07:22;;;;;;;2.03;1.23;;;19.30;99.90;;;;;;5102735;28;20172;-87
2023/07/28 06:09:47;;;;;;;1.70;1.30;;;19.30;99.90;;;;;;5079839;28;20661;-83
2023/07/28 06:12:13;;;;;;;2.10;1.40;;;19.20;99.90;;;;;;5077877;28;20202;-87
2023/07/28 06:14:39;;;;;;;3.07;2.00;;;19.30;99.90;;;;;;5077389;28;20190;-85
2023/07/28 06:17:05;;;;;;;2.40;1.87;;;19.30;99.90;;;;;;5088406;28;20548;-86
2023/07/28 06:19:31;;;;;;;3.03;2.07;;;19.20;99.90;;;;;;5084602;28;20172;-86
2023/07/28 06:21:57;;;;;;;3.33;2.40;;;19.30;99.90;;;;;;5079207;28;20206;-85
2023/07/28 06:24:23;;;;;;;3.33;2.20;;;19.20;99.90;;;;;;5079208;28;20183;-85
2023/07/28 06:26:50;;;;;;;4.50;2.37;;;19.30;99.90;;;;;;5077349;28;20659;-85
2023/07/28 06:29:15;;;;;;;3.57;2.30;;;19.40;99.90;;;;;;5085955;28;20190;-87
2023/07/28 06:31:41;;;;;;;3.33;2.50;;;19.50;99.90;;;;;;5084338;28;20189;-84
2023/07/28 06:34:08;;;;;;;3.03;2.23;;;19.50;99.90;;;;;;5076491;28;20567;-84
2023/07/28 06:36:33;;;;;;;4.23;2.40;;;19.60;99.90;;;;;;5076473;28;20640;-84
2023/07/28 06:39:00;;;;;;;2.83;2.10;;;19.60;99.90;;;;;;5077082;28;20179;-84
2023/07/28 06:41:26;;;;;;;3.30;2.10;;;19.60;99.90;;;;;;5076354;28;20275;-85
2023/07/28 06:43:51;;;;;;;2.97;1.63;;;19.60;99.90;;;;;;5094978;28;20636;-86
2023/07/28 06:46:17;;;;;;;2.00;1.80;;;19.70;99.90;;;;;;5076544;28;20518;-84
2023/07/28 06:48:43;;;;;;;2.27;1.60;;;19.70;99.90;;;;;;5076564;28;20230;-86
2023/07/28 06:51:08;;;;;;;1.50;1.23;;;19.70;99.90;;;;;;5079410;28;20185;-84
2023/07/28 06:53:37;;;;;;;2.10;1.23;;;19.80;99.90;;;;;;5077805;28;20195;-85
2023/07/28 06:56:02;;;;;;;2.17;1.47;;;19.70;99.90;;;;;;5076191;28;20267;-84
2023/07/28 06:58:28;;;;;;;2.23;1.73;;;19.80;99.90;;;;;;5075651;28;20177;-85
2023/07/28 07:00:55;;;;;;;1.73;1.40;;;19.90;99.90;;;;;;5093945;28;20587;-85
2023/07/28 07:03:22;;;;;;;1.40;1.20;;;19.90;99.90;;;;;;5094078;28;20213;-86
2023/07/28 07:05:48;;;;;;;1.17;0.90;;;19.90;99.90;;;;;;5074783;28;20653;-85
2023/07/28 07:08:14;;;;;;;1.57;1.10;;;19.90;99.90;;;;;;5093939;28;20187;-84
2023/07/28 07:10:39;;;;;;;1.63;1.07;;;19.90;99.90;;;;;;5075858;28;20184;-85
2023/07/28 07:13:05;;;;;;;2.17;1.10;;;19.90;99.90;;;;;;5075544;28;20659;-86
2023/07/28 07:15:34;;;;;;;1.10;0.97;;;20.00;99.90;;;;;;5076063;28;20173;-87
2023/07/28 07:18:00;;;;;;;1.00;0.90;;;20.00;99.90;;;;;;5076561;28;20181;-86
2023/07/28 07:20:26;;;;;;;1.93;0.90;;;20.00;99.90;;;;;;5076470;28;20729;-84
2023/07/28 07:22:51;;;;;;;1.87;1.10;;;20.00;99.90;;;;;;5076481;28;20183;-83
2023/07/28 07:25:17;;;;;;;1.77;1.10;;;20.00;99.90;;;;;;5096169;28;20227;-85
2023/07/28 07:27:43;;;;;;;1.00;0.90;;;20.20;99.90;;;;;;5076167;28;20174;-85
2023/07/28 07:30:09;;;;;;;2.27;1.00;;;20.30;99.90;;;;;;5075347;28;20190;-83
2023/07/28 07:32:34;;;;;;;1.60;1.07;;;20.20;99.90;;;;;;5075458;28;20252;-85
2023/07/28 07:35:00;;;;;;;1.40;1.10;;;20.30;99.90;;;;;;5076605;28;20185;-84
2023/07/28 07:37:27;;;;;;;1.20;0.90;;;20.30;99.90;;;;;;5087407;28;20267;-84
2023/07/28 07:39:52;;;;;;;1.67;0.90;;;20.30;99.90;;;;;;5096521;28;20182;-86
2023/07/28 07:42:18;;;;;;;1.13;0.80;;;20.40;99.90;;;;;;5082745;28;20310;-85
2023/07/28 07:44:43;;;;;;;2.00;0.90;;;20.30;99.90;;;;;;5081447;28;20173;-82
2023/07/28 07:47:16;;;;;;;1.30;0.90;;;20.40;99.90;;;;;;5082390;28;20181;-83
2023/07/28 07:49:42;;;;;;;1.67;1.30;;;20.50;99.90;;;;;;5076515;28;20180;-85
2023/07/28 07:52:11;;;;;;;2.93;1.20;;;20.50;99.90;;;;;;5075068;28;20188;-85
2023/07/28 07:54:37;;;;;;;2.20;1.50;;;20.50;99.90;;;;;;5075546;28;20178;-85
2023/07/28 07:57:04;;;;;;;3.23;2.20;;;20.60;99.90;;;;;;5073598;28;20275;-87
2023/07/28 07:59:32;;;;;;;5.17;2.30;;;20.60;99.90;;;;;;5076412;28;20166;-87
2023/07/28 08:02:00;;;;;;;4.17;2.17;;;20.60;99.90;;;;;;5074965;28;20273;-86
2023/07/28 08:04:27;;;;;;;4.50;2.40;;;20.60;99.90;;;;;;5075046;28;20261;-87
2023/07/28 08:06:54;;;;;;;3.43;2.60;;;20.60;99.90;;;;;;5075180;28;20178;-86
2023/07/28 08:09:19;;;;;;;3.17;2.30;;;20.50;99.90;;;;;;5074518;28;20262;-85
2023/07/28 08:11:45;;;;;;;3.07;2.00;;;20.50;99.90;;;;;;5102341;28;20265;-86
2023/07/28 08:14:10;;;;;;;3.20;2.30;;;20.40;99.90;;;;;;5096600;28;20194;-85
2023/07/28 08:16:36;;;;;;;3.27;2.47;;;20.40;99.90;;;;;;5099268;28;20199;-88
2023/07/28 08:19:02;;;;;;;4.00;2.70;;;20.40;99.90;;;;;;5080848;28;20189;-86
2023/07/28 08:21:28;;;;;;;2.40;2.10;;;20.50;99.90;;;;;;5077239;28;20308;-86
2023/07/28 08:23:54;;;;;;;3.03;1.87;;;20.50;99.90;;;;;;5075130;28;20190;-85
2023/07/28 08:26:20;;;;;;;2.23;1.60;;;20.50;99.90;;;;;;5075131;28;20262;-86
2023/07/28 08:28:45;;;;;;;2.20;1.67;;;20.50;99.90;;;;;;5075005;28;20619;-86
2023/07/28 08:31:11;;;;;;;3.57;2.00;;;20.60;99.90;;;;;;5075170;28;20190;-86
2023/07/28 08:33:38;;;;;;;4.13;1.60;;;20.50;99.90;;;;;;5074925;28;20565;-86
2023/07/28 08:36:04;;;;;;;4.13;1.43;;;20.30;99.90;;;;;;5075172;28;20202;-87
2023/07/28 08:38:29;;;;;;;3.30;2.00;;;20.10;99.90;;;;;;5074749;28;20239;-84
2023/07/28 08:40:58;;;;;;;1.97;1.70;;;20.20;99.90;;;;;;5075132;28;20201;-87
2023/07/28 08:43:24;;;;;;;3.20;1.60;;;20.20;99.90;;;;;;5075653;28;20285;-86
2023/07/28 08:45:52;;;;;;;3.03;1.77;;;20.30;99.90;;;;;;5074779;28;20185;-85
2023/07/28 08:48:18;;;;;;;3.17;1.60;;;20.40;99.90;;;;;;5074440;28;20261;-86
2023/07/28 08:50:44;;;;;;;2.70;1.40;;;20.50;99.90;;;;;;5074543;28;20592;-87
2023/07/28 08:53:10;;;;;;;2.50;1.20;;;20.50;99.90;;;;;;5074291;28;20173;-86
2023/07/28 08:55:35;;;;;;;1.97;1.10;;;20.50;99.90;;;;;;5074953;28;20221;-85
2023/07/28 08:58:23;;;;;;;3.17;1.40;;;20.50;99.90;;;;;;5075410;28;20169;-85
2023/07/28 09:00:50;;;;;;;1.43;0.90;;;20.40;99.90;;;;;;5074543;28;20222;-84
2023/07/28 09:03:17;;;;;;;3.43;1.10;;;20.40;99.90;;;;;;5066833;28;20188;-85
2023/07/28 09:05:45;;;;;;;2.23;1.50;;;20.30;99.90;;;;;;5067136;28;20178;-86
2023/07/28 09:08:12;;;;;;;1.47;0.90;;;20.30;99.90;;;;;;5076248;28;20182;-85
2023/07/28 09:10:50;;;;;;;1.90;1.20;;;20.20;99.90;;;;;;5068890;28;20715;-86
2023/07/28 09:13:17;;;;;;;2.33;0.70;;;20.20;99.90;;;;;;5078423;28;20195;-83
2023/07/28 09:15:43;;;;;;;1.20;0.77;;;20.10;99.90;;;;;;5070103;28;20227;-86
2023/07/28 09:18:11;;;;;;;1.20;0.83;;;20.10;99.90;;;;;;5068640;28;20632;-87
2023/07/28 09:20:39;;;;;;;1.60;1.00;;;20.10;99.90;;;;;;5071247;28;20172;-86
2023/07/28 09:23:07;;;;;;;1.67;0.90;;;20.10;99.90;;;;;;5063129;28;20275;-82
2023/07/28 09:25:35;;;;;;;1.60;1.00;;;20.20;99.90;;;;;;5069546;28;20177;-84
2023/07/28 09:28:01;;;;;;;1.87;1.37;;;20.20;99.90;;;;;;5082350;28;20233;-87
2023/07/28 09:30:47;;;;;;;1.33;1.00;;;20.20;99.90;;;;;;5072173;28;20188;-86
2023/07/28 09:33:13;;;;;;;2.10;1.17;;;20.30;99.90;;;;;;5102101;28;20172;-86
2023/07/28 09:35:50;;;;;;;1.67;1.10;;;20.30;99.90;;;;;;5081009;28;20189;-87
2023/07/28 09:38:16;;;;;;;2.20;1.27;;;20.50;99.90;;;;;;5101700;28;20178;-86
2023/07/28 09:40:43;;;;;;;2.67;1.20;;;20.60;99.90;;;;;;5068186;28;20193;-84
2023/07/28 09:43:10;;;;;;;2.57;1.20;;;20.80;99.90;;;;;;5076942;28;20179;-85
2023/07/28 09:45:36;;;;;;;2.77;1.47;;;20.80;99.90;;;;;;5079346;28;20187;-84
2023/07/28 09:48:03;;;;;;;2.70;1.60;;;20.90;99.90;;;;;;5079182;28;20336;-84
2023/07/28 09:50:32;;;;;;;3.97;2.10;;;20.90;99.90;;;;;;5070625;28;20190;-84
2023/07/28 09:53:02;;;;;;;3.67;2.83;;;21.00;99.90;;;;;;5077102;28;20172;-86
2023/07/28 09:55:28;;;;;;;6.17;3.30;;;21.10;99.90;;;;;;5068438;28;20168;-84
2023/07/28 09:57:55;;;;;;;4.80;4.20;;;21.10;99.90;;;;;;5067295;28;20529;-83
2023/07/28 10:00:22;;;;;;;4.90;4.03;;;21.10;99.90;;;;;;5066712;28;20253;-83
2023/07/28 10:02:50;;;;;;;4.20;3.77;;;21.10;99.90;;;;;;5076575;28;20187;-82
2023/07/28 10:05:15;;;;;;;4.27;3.70;;;21.20;99.90;;;;;;5074509;28;20174;-85
2023/07/28 10:07:43;;;;;;;6.43;4.07;;;21.20;99.90;;;;;;5080848;28;20170;-85
2023/07/28 10:10:12;;;;;;;5.93;4.80;;;21.30;99.90;;;;;;5066210;28;20258;-84
2023/07/28 10:12:42;;;;;;;5.17;3.20;;;21.40;99.90;;;;;;5099630;28;20186;-85
2023/07/28 10:15:15;;;;;;;4.33;3.03;;;21.30;99.90;;;;;;5076504;28;20175;-85
2023/07/28 10:17:44;;;;;;;4.00;2.40;;;21.50;99.90;;;;;;5074384;28;20175;-84
2023/07/28 10:20:29;;;;;;;4.57;2.50;;;21.50;99.90;;;;;;5077384;28;20269;-87
2023/07/28 10:23:07;;;;;;;1.93;1.40;;;21.60;99.90;;;;;;5075097;28;20203;-85
2023/07/28 10:25:37;;;;;;;3.37;1.60;;;21.50;99.90;;;;;;5084586;28;20224;-87
2023/07/28 10:28:05;;;;;;;5.17;2.00;;;21.40;99.90;;;;;;5073688;28;20166;-84
2023/07/28 10:30:39;;;;;;;4.37;2.53;;;21.40;99.90;;;;;;5086641;28;20167;-84
2023/07/28 10:33:05;;;;;;;4.53;2.50;;;21.30;99.90;;;;;;5099748;28;20166;-84
2023/07/28 10:35:33;;;;;;;2.83;1.67;;;21.30;99.90;;;;;;5077640;28;20631;-84
2023/07/28 10:38:29;;;;;;;2.77;1.70;;;21.50;99.90;;;;;;5097805;28;20218;-85
2023/07/28 10:41:09;;;;;;;2.73;2.00;;;21.50;99.90;;;;;;5074498;28;20190;-84
2023/07/28 10:43:35;;;;;;;4.07;2.20;;;21.50;99.90;;;;;;5075371;28;20623;-83
2023/07/28 10:46:01;;;;;;;5.13;3.93;;;21.50;99.90;;;;;;5079075;28;20196;-83
2023/07/28 10:48:27;;;;;;;5.10;3.67;;;21.50;99.90;;;;;;5076843;28;20646;-84
2023/07/28 10:50:53;;;;;;;6.60;5.20;;;21.50;99.90;;;;;;5075899;28;20178;-84
2023/07/28 10:53:19;;;;;;;6.70;5.37;;;21.50;99.90;;;;;;5069327;28;20220;-85
2023/07/28 10:55:45;;;;;;;6.80;5.97;;;21.50;99.90;;;;;;5076228;28;20174;-84
2023/07/28 10:58:11;;;;;;;6.60;6.00;;;21.50;99.90;;;;;;5075861;28;20174;-83
2023/07/28 11:00:36;;;;;;;6.93;6.23;;;21.50;99.90;;;;;;5056295;28;20192;-85
2023/07/28 11:03:02;;;;;;;5.57;5.00;;;21.60;99.90;;;;;;5057409;28;20185;-84
2023/07/28 11:05:29;;;;;;;5.30;4.80;;;21.70;99.90;;;;;;5101115;28;20174;-84
2023/07/28 11:08:00;;;;;;;5.17;4.63;;;21.80;99.90;;;;;;5075526;28;20558;-84
2023/07/28 11:10:30;;;;;;;5.83;5.23;;;21.70;99.90;;;;;;5093872;28;20194;-84
2023/07/28 11:13:01;;;;;;;5.37;4.53;;;21.60;99.90;;;;;;5068798;28;20196;-85
2023/07/28 11:15:35;;;;;;;6.43;5.03;;;21.70;99.90;;;;;;5086638;28;20266;-86
2023/07/28 11:18:09;;;;;;;6.27;4.90;;;21.60;99.90;;;;;;5089186;28;20170;-85
2023/07/28 11:20:44;;;;;;;5.47;4.97;;;21.60;99.90;;;;;;5077018;28;20586;-84
2023/07/28 11:23:13;;;;;;;5.30;4.80;;;21.60;99.90;;;;;;5076380;28;20299;-84
2023/07/28 11:25:39;;;;;;;5.10;3.90;;;21.70;99.90;;;;;;5075335;28;20190;-86
2023/07/28 11:28:08;;;;;;;5.17;3.87;;;21.90;99.90;;;;;;5074529;28;20172;-84
2023/07/28 11:30:40;;;;;;;5.70;3.73;;;22.10;99.90;;;;;;5075606;28;20175;-84
2023/07/28 11:33:11;;;;;;;3.40;3.10;;;22.20;99.90;;;;;;5075294;28;20179;-85
2023/07/28 11:35:39;;;;;;;3.50;3.17;;;22.30;99.90;;;;;;5075004;28;20616;-85
2023/07/28 11:38:05;;;;;;;3.97;3.10;;;22.40;99.90;;;;;;5075765;28;20176;-85
2023/07/28 11:40:31;;;;;;;4.53;3.13;;;22.50;99.90;;;;;;5075557;28;20230;-85
2023/07/28 11:42:56;;;;;;;3.30;2.83;;;22.70;99.90;;;;;;5074433;28;20659;-85
2023/07/28 11:45:23;;;;;;;3.30;2.93;;;22.70;99.90;;;;;;5075174;28;20178;-84
2023/07/28 11:48:04;;;;;;;6.20;2.57;;;22.70;99.90;;;;;;5075518;28;20182;-83
2023/07/28 11:50:38;;;;;;;3.20;2.20;;;22.70;99.90;;;;;;5075953;28;20179;-85
2023/07/28 11:53:08;;;;;;;4.47;3.70;;;22.70;99.90;;;;;;5075310;28;20236;-84
2023/07/28 11:55:35;;;;;;;3.40;2.33;;;22.40;99.90;;;;;;5075291;28;20181;-84
2023/07/28 11:58:04;;;;;;;3.17;2.27;;;22.50;99.90;;;;;;5092592;28;20224;-84
2023/07/28 12:00:34;;;;;;;4.07;1.90;;;22.70;99.90;;;;;;5073827;28;20228;-85
2023/07/28 12:03:09;;;;;;;3.30;2.00;;;22.90;99.90;;;;;;5074186;28;20183;-85
2023/07/28 12:05:35;;;;;;;2.23;1.70;;;23.00;99.90;;;;;;5074419;28;20258;-85
2023/07/28 12:08:03;;;;;;;2.40;1.50;;;23.00;99.90;;;;;;5074693;28;20663;-85
2023/07/28 12:10:31;;;;;;;4.27;2.23;;;23.00;99.90;;;;;;5076938;28;20208;-88
2023/07/28 12:12:57;;;;;;;3.40;1.70;;;22.90;99.90;;;;;;5075391;28;20266;-86
2023/07/28 12:15:27;;;;;;;2.90;1.80;;;23.00;99.90;;;;;;5077204;28;20179;-89
2023/07/28 12:18:15;;;;;;;3.50;1.80;;;23.20;99.90;;;;;;5077768;28;20167;-84
2023/07/28 12:20:46;;;;;;;3.17;2.23;;;23.40;99.90;;;;;;5075484;28;20700;-87
2023/07/28 12:23:24;;;;;;;4.23;2.17;;;23.50;99.90;;;;;;5076332;28;20547;-88
2023/07/28 12:25:58;;;;;;;4.83;2.00;;;23.70;99.90;;;;;;5076083;28;20262;-88
2023/07/28 12:28:28;;;;;;;3.57;1.77;;;23.80;99.90;;;;;;5076156;28;20251;-89
2023/07/28 12:30:55;;;;;;;2.57;1.87;;;23.60;99.90;;;;;;5074389;28;20340;-87
2023/07/28 12:33:21;;;;;;;2.47;1.87;;;23.60;99.90;;;;;;5074609;28;20178;-86
2023/07/28 12:35:47;;;;;;;4.63;1.80;;;23.70;99.90;;;;;;5075254;28;20232;-82
2023/07/28 12:38:13;;;;;;;3.70;1.80;;;23.50;99.90;;;;;;5094224;28;20166;-85
2023/07/28 12:40:38;;;;;;;2.23;1.40;;;23.50;99.90;;;;;;5090568;28;20247;-86
2023/07/28 12:43:04;;;;;;;2.13;1.40;;;23.30;99.90;;;;;;5074608;28;20171;-86
2023/07/28 12:45:30;;;;;;;1.83;1.57;;;23.20;99.90;;;;;;5084359;28;20182;-88
2023/07/28 12:47:57;;;;;;;3.77;1.87;;;23.30;99.90;;;;;;5087740;28;20229;-86